sensor_id;sensor_type;location;lat;lon;timestamp;temperature;humidity
36790;DHT22;22740;52.182;8.780;2023-02-01T00:02:49;4.30;99.90
36790;DHT22;22740;52.182;8.780;2023-02-01T00:08:55;4.30;99.90
36790;DHT22;22740;52.182;8.780;2023-02-01T00:14:57;4.20;99.90
36790;DHT22;22740;52.182;8.780;2023-02-01T00:20:59;4.20;99.90
36790;DHT22;22740;52.182;8.780;2023-02-01T00:27:02;4.20;99.90
36790;DHT22;22740;52.182;8.780;2023-02-01T00:33:04;4.10;99.90
36790;DHT22;22740;52.182;8.780;2023-02-01T00:39:06;4.10;99.90
36790;DHT22;22740;52.182;8.780;2023-02-01T00:45:09;4.10;99.90
36790;DHT22;22740;52.182;8.780;2023-02-01T00:51:14;4.10;99.90
36790;DHT22;22740;52.182;8.780;2023-02-01T00:57:16;4.10;99.90
36790;DHT22;22740;52.182;8.780;2023-02-01T01:03:18;4.00;99.90
36790;DHT22;22740;52.182;8.780;2023-02-01T01:09:20;4.10;99.90
36790;DHT22;22740;52.182;8.780;2023-02-01T01:15:22;4.10;99.90
36790;DHT22;22740;52.182;8.780;2023-02-01T01:21:25;4.20;99.90
36790;DHT22;22740;52.182;8.780;2023-02-01T01:27:28;4.10;99.90
36790;DHT22;22740;52.182;8.780;2023-02-01T01:33:30;4.10;99.90
36790;DHT22;22740;52.182;8.780;2023-02-01T01:39:32;4.00;99.90
36790;DHT22;22740;52.182;8.780;2023-02-01T01:45:34;4.00;99.90
36790;DHT22;22740;52.182;8.780;2023-02-01T01:51:58;4.00;99.90
36790;DHT22;22740;52.182;8.780;2023-02-01T01:58:07;4.10;99.90
36790;DHT22;22740;52.182;8.780;2023-02-01T02:04:10;4.10;99.90
36790;DHT22;22740;52.182;8.780;2023-02-01T02:10:13;4.10;99.90
36790;DHT22;22740;52.182;8.780;2023-02-01T02:47:45;4.40;99.90
36790;DHT22;22740;52.182;8.780;2023-02-01T02:54:03;4.50;99.90
36790;DHT22;22740;52.182;8.780;2023-02-01T03:00:29;4.50;99.90
36790;DHT22;22740;52.182;8.780;2023-02-01T03:06:53;4.70;99.90
36790;DHT22;22740;52.182;8.780;2023-02-01T03:13:04;4.70;99.90
36790;DHT22;22740;52.182;8.780;2023-02-01T03:19:23;4.80;99.90
36790;DHT22;22740;52.182;8.780;2023-02-01T03:25:30;4.70;99.90
36790;DHT22;22740;52.182;8.780;2023-02-01T03:31:32;4.80;99.90
36790;DHT22;22740;52.182;8.780;2023-02-01T03:37:34;4.80;99.90
36790;DHT22;22740;52.182;8.780;2023-02-01T03:50:07;4.80;99.90
36790;DHT22;22740;52.182;8.780;2023-02-01T03:56:10;4.80;99.90
36790;DHT22;22740;52.182;8.780;2023-02-01T04:02:13;4.90;99.90
36790;DHT22;22740;52.182;8.780;2023-02-01T04:08:15;4.90;99.90
36790;DHT22;22740;52.182;8.780;2023-02-01T04:14:18;5.00;99.90
36790;DHT22;22740;52.182;8.780;2023-02-01T04:20:21;5.00;99.90
36790;DHT22;22740;52.182;8.780;2023-02-01T04:26:24;5.00;99.90
36790;DHT22;22740;52.182;8.780;2023-02-01T04:32:26;5.00;99.90
36790;DHT22;22740;52.182;8.780;2023-02-01T04:38:28;5.00;99.90
36790;DHT22;22740;52.182;8.780;2023-02-01T04:44:31;5.00;99.90
36790;DHT22;22740;52.182;8.780;2023-02-01T04:50:33;5.00;99.90
36790;DHT22;22740;52.182;8.780;2023-02-01T04:56:35;4.90;99.90
36790;DHT22;22740;52.182;8.780;2023-02-01T05:02:38;4.90;99.90
36790;DHT22;22740;52.182;8.780;2023-02-01T05:08:40;4.90;99.90
36790;DHT22;22740;52.182;8.780;2023-02-01T05:14:42;4.80;99.90
36790;DHT22;22740;52.182;8.780;2023-02-01T05:20:44;4.90;99.90
36790;DHT22;22740;52.182;8.780;2023-02-01T05:26:47;4.80;99.90
36790;DHT22;22740;52.182;8.780;2023-02-01T05:32:51;4.80;99.90
36790;DHT22;22740;52.182;8.780;2023-02-01T05:38:54;4.80;99.90
36790;DHT22;22740;52.182;8.780;2023-02-01T05:44:56;4.70;99.90
36790;DHT22;22740;52.182;8.780;2023-02-01T05:50:58;4.70;99.90
36790;DHT22;22740;52.182;8.780;2023-02-01T05:57:00;4.70;99.90
36790;DHT22;22740;52.182;8.780;2023-02-01T06:03:02;4.60;99.90
36790;DHT22;22740;52.182;8.780;2023-02-01T06:09:04;4.60;99.90
36790;DHT22;22740;52.182;8.780;2023-02-01T06:15:07;4.50;99.90
36790;DHT22;22740;52.182;8.780;2023-02-01T06:21:10;4.60;99.90
36790;DHT22;22740;52.182;8.780;2023-02-01T06:27:12;4.70;99.90
36790;DHT22;22740;52.182;8.780;2023-02-01T06:33:15;4.80;99.90
36790;DHT22;22740;52.182;8.780;2023-02-01T06:39:17;4.80;99.90
36790;DHT22;22740;52.182;8.780;2023-02-01T06:45:19;4.80;99.90
36790;DHT22;22740;52.182;8.780;2023-02-01T06:51:23;4.80;99.90
36790;DHT22;22740;52.182;8.780;2023-02-01T06:57:25;4.90;99.90
36790;DHT22;22740;52.182;8.780;2023-02-01T07:03:32;4.90;99.90
36790;DHT22;22740;52.182;8.780;2023-02-01T07:09:34;4.90;99.90
36790;DHT22;22740;52.182;8.780;2023-02-01T07:15:36;5.00;99.90
36790;DHT22;22740;52.182;8.780;2023-02-01T07:21:37;5.00;99.90
36790;DHT22;22740;52.182;8.780;2023-02-01T07:27:40;5.10;99.90
36790;DHT22;22740;52.182;8.780;2023-02-01T07:33:42;5.10;99.90
36790;DHT22;22740;52.182;8.780;2023-02-01T07:39:44;5.20;99.90
36790;DHT22;22740;52.182;8.780;2023-02-01T07:45:51;5.20;99.90
36790;DHT22;22740;52.182;8.780;2023-02-01T07:51:53;5.30;99.90
36790;DHT22;22740;52.182;8.780;2023-02-01T07:57:58;5.30;99.90
36790;DHT22;22740;52.182;8.780;2023-02-01T08:04:01;5.30;99.90
36790;DHT22;22740;52.182;8.780;2023-02-01T08:10:04;5.40;99.90
36790;DHT22;22740;52.182;8.780;2023-02-01T08:16:14;5.40;99.90
36790;DHT22;22740;52.182;8.780;2023-02-01T08:22:16;5.50;99.90
36790;DHT22;22740;52.182;8.780;2023-02-01T08:28:18;5.30;99.90
36790;DHT22;22740;52.182;8.780;2023-02-01T08:34:20;5.10;99.90
36790;DHT22;22740;52.182;8.780;2023-02-01T08:40:22;5.10;99.90
36790;DHT22;22740;52.182;8.780;2023-02-01T08:46:25;5.30;99.90
36790;DHT22;22740;52.182;8.780;2023-02-01T08:52:27;5.40;99.90
36790;DHT22;22740;52.182;8.780;2023-02-01T08:58:29;5.50;99.90
36790;DHT22;22740;52.182;8.780;2023-02-01T09:04:31;5.60;99.90
36790;DHT22;22740;52.182;8.780;2023-02-01T09:10:34;5.60;99.90
36790;DHT22;22740;52.182;8.780;2023-02-01T09:16:38;5.60;99.90
36790;DHT22;22740;52.182;8.780;2023-02-01T09:22:41;5.70;99.90
36790;DHT22;22740;52.182;8.780;2023-02-01T09:28:43;5.80;99.90
36790;DHT22;22740;52.182;8.780;2023-02-01T09:34:45;5.80;99.90
36790;DHT22;22740;52.182;8.780;2023-02-01T09:40:47;5.90;99.90
36790;DHT22;22740;52.182;8.780;2023-02-01T09:46:49;6.00;99.90
36790;DHT22;22740;52.182;8.780;2023-02-01T09:53:06;6.10;99.90
36790;DHT22;22740;52.182;8.780;2023-02-01T09:59:19;6.10;99.90
36790;DHT22;22740;52.182;8.780;2023-02-01T10:05:47;6.20;99.90
36790;DHT22;22740;52.182;8.780;2023-02-01T10:25:26;6.20;99.90
36790;DHT22;22740;52.182;8.780;2023-02-01T10:31:36;6.20;99.90
36790;DHT22;22740;52.182;8.780;2023-02-01T10:37:41;6.10;99.90
36790;DHT22;22740;52.182;8.780;2023-02-01T10:43:44;6.10;99.90
36790;DHT22;22740;52.182;8.780;2023-02-01T10:50:00;6.10;99.90
36790;DHT22;22740;52.182;8.780;2023-02-01T10:56:08;6.10;99.90
36790;DHT22;22740;52.182;8.780;2023-02-01T11:02:26;6.10;99.90
36790;DHT22;22740;52.182;8.780;2023-02-01T11:08:32;6.10;99.90
36790;DHT22;22740;52.182;8.780;2023-02-01T11:14:39;6.10;99.90
36790;DHT22;22740;52.182;8.780;2023-02-01T11:20:42;6.10;99.90
36790;DHT22;22740;52.182;8.780;2023-02-01T11:26:45;6.20;99.90
36790;DHT22;22740;52.182;8.780;2023-02-01T11:32:48;6.20;99.90
36790;DHT22;22740;52.182;8.780;2023-02-01T11:38:54;6.20;99.90
36790;DHT22;22740;52.182;8.780;2023-02-01T11:45:28;6.20;99.90
36790;DHT22;22740;52.182;8.780;2023-02-01T11:51:34;6.20;99.90
36790;DHT22;22740;52.182;8.780;2023-02-01T12:04:29;6.20;99.90
36790;DHT22;22740;52.182;8.780;2023-02-01T12:36:14;5.50;99.90
36790;DHT22;22740;52.182;8.780;2023-02-01T12:42:31;5.50;99.90
36790;DHT22;22740;52.182;8.780;2023-02-01T12:48:41;5.40;99.90
36790;DHT22;22740;52.182;8.780;2023-02-01T12:54:58;5.30;99.90
36790;DHT22;22740;52.182;8.780;2023-02-01T13:01:06;5.20;99.90
36790;DHT22;22740;52.182;8.780;2023-02-01T13:07:24;5.20;99.90
36790;DHT22;22740;52.182;8.780;2023-02-01T13:13:35;5.20;99.90
36790;DHT22;22740;52.182;8.780;2023-02-01T13:20:19;5.20;99.90
36790;DHT22;22740;52.182;8.780;2023-02-01T13:26:23;5.20;99.90
36790;DHT22;22740;52.182;8.780;2023-02-01T13:32:44;5.20;99.90
36790;DHT22;22740;52.182;8.780;2023-02-01T13:46:09;5.30;99.90
36790;DHT22;22740;52.182;8.780;2023-02-01T14:17:50;4.70;99.90
36790;DHT22;22740;52.182;8.780;2023-02-01T14:29:58;5.10;99.90
36790;DHT22;22740;52.182;8.780;2023-02-01T14:36:08;5.30;99.90
36790;DHT22;22740;52.182;8.780;2023-02-01T14:42:21;5.30;99.90
36790;DHT22;22740;52.182;8.780;2023-02-01T14:54:29;5.70;99.90
36790;DHT22;22740;52.182;8.780;2023-02-01T15:00:31;5.90;99.90
36790;DHT22;22740;52.182;8.780;2023-02-01T15:06:44;6.00;99.90
36790;DHT22;22740;52.182;8.780;2023-02-01T15:12:48;5.90;99.90
36790;DHT22;22740;52.182;8.780;2023-02-01T15:19:06;5.90;99.90
36790;DHT22;22740;52.182;8.780;2023-02-01T15:25:22;5.80;99.90
36790;DHT22;22740;52.182;8.780;2023-02-01T15:31:58;5.80;99.90
36790;DHT22;22740;52.182;8.780;2023-02-01T15:44:37;5.80;99.90
36790;DHT22;22740;52.182;8.780;2023-02-01T15:50:40;5.70;99.90
36790;DHT22;22740;52.182;8.780;2023-02-01T15:56:42;5.70;99.90
36790;DHT22;22740;52.182;8.780;2023-02-01T16:02:55;5.80;99.90
36790;DHT22;22740;52.182;8.780;2023-02-01T16:15:03;5.70;99.90
36790;DHT22;22740;52.182;8.780;2023-02-01T16:21:05;5.70;99.90
36790;DHT22;22740;52.182;8.780;2023-02-01T16:27:09;5.60;99.90
36790;DHT22;22740;52.182;8.780;2023-02-01T16:33:15;5.70;99.90
36790;DHT22;22740;52.182;8.780;2023-02-01T16:39:21;5.70;99.90
36790;DHT22;22740;52.182;8.780;2023-02-01T16:45:23;5.70;99.90
36790;DHT22;22740;52.182;8.780;2023-02-01T16:51:29;5.70;99.90
36790;DHT22;22740;52.182;8.780;2023-02-01T16:57:33;5.70;99.90
36790;DHT22;22740;52.182;8.780;2023-02-01T17:03:35;5.60;99.90
36790;DHT22;22740;52.182;8.780;2023-02-01T17:09:39;5.50;99.90
36790;DHT22;22740;52.182;8.780;2023-02-01T17:15:49;5.50;99.90
36790;DHT22;22740;52.182;8.780;2023-02-01T17:21:55;5.40;99.90
36790;DHT22;22740;52.182;8.780;2023-02-01T17:28:00;5.50;99.90
36790;DHT22;22740;52.182;8.780;2023-02-01T17:34:01;5.50;99.90
36790;DHT22;22740;52.182;8.780;2023-02-01T17:40:04;5.50;99.90
36790;DHT22;22740;52.182;8.780;2023-02-01T17:46:13;5.60;99.90
36790;DHT22;22740;52.182;8.780;2023-02-01T17:52:17;5.60;99.90
36790;DHT22;22740;52.182;8.780;2023-02-01T17:58:19;5.50;99.90
36790;DHT22;22740;52.182;8.780;2023-02-01T18:04:22;5.50;99.90
36790;DHT22;22740;52.182;8.780;2023-02-01T18:10:24;5.50;99.90
36790;DHT22;22740;52.182;8.780;2023-02-01T18:16:28;5.60;99.90
36790;DHT22;22740;52.182;8.780;2023-02-01T18:22:30;5.50;99.90
36790;DHT22;22740;52.182;8.780;2023-02-01T18:28:32;5.50;99.90
36790;DHT22;22740;52.182;8.780;2023-02-01T18:34:34;5.50;99.90
36790;DHT22;22740;52.182;8.780;2023-02-01T18:40:55;5.40;99.90
36790;DHT22;22740;52.182;8.780;2023-02-01T18:46:58;5.40;99.90
36790;DHT22;22740;52.182;8.780;2023-02-01T18:53:03;5.40;99.90
36790;DHT22;22740;52.182;8.780;2023-02-01T18:59:05;5.40;99.90
36790;DHT22;22740;52.182;8.780;2023-02-01T19:05:09;5.30;99.90
36790;DHT22;22740;52.182;8.780;2023-02-01T19:11:11;5.30;99.90
36790;DHT22;22740;52.182;8.780;2023-02-01T19:17:13;5.30;99.90
36790;DHT22;22740;52.182;8.780;2023-02-01T19:23:19;5.40;99.90
36790;DHT22;22740;52.182;8.780;2023-02-01T19:29:21;5.40;99.90
36790;DHT22;22740;52.182;8.780;2023-02-01T19:35:23;5.50;99.90
36790;DHT22;22740;52.182;8.780;2023-02-01T19:41:25;5.50;99.90
36790;DHT22;22740;52.182;8.780;2023-02-01T19:47:27;5.50;99.90
36790;DHT22;22740;52.182;8.780;2023-02-01T19:53:29;5.60;99.90
36790;DHT22;22740;52.182;8.780;2023-02-01T19:59:31;5.60;99.90
36790;DHT22;22740;52.182;8.780;2023-02-01T20:05:33;5.60;99.90
36790;DHT22;22740;52.182;8.780;2023-02-01T20:11:35;5.40;99.90
36790;DHT22;22740;52.182;8.780;2023-02-01T20:17:37;5.50;99.90
36790;DHT22;22740;52.182;8.780;2023-02-01T20:23:39;5.50;99.90
36790;DHT22;22740;52.182;8.780;2023-02-01T20:29:41;5.50;99.90
36790;DHT22;22740;52.182;8.780;2023-02-01T20:35:44;5.40;99.90
36790;DHT22;22740;52.182;8.780;2023-02-01T20:41:46;5.40;99.90
36790;DHT22;22740;52.182;8.780;2023-02-01T20:47:49;5.30;99.90
36790;DHT22;22740;52.182;8.780;2023-02-01T20:53:51;5.30;99.90
36790;DHT22;22740;52.182;8.780;2023-02-01T20:59:56;5.30;99.90
36790;DHT22;22740;52.182;8.780;2023-02-01T21:05:59;5.40;99.90
36790;DHT22;22740;52.182;8.780;2023-02-01T21:12:01;5.40;99.90
36790;DHT22;22740;52.182;8.780;2023-02-01T21:18:04;5.30;99.90
36790;DHT22;22740;52.182;8.780;2023-02-01T21:24:07;5.30;99.90
36790;DHT22;22740;52.182;8.780;2023-02-01T21:30:10;5.30;99.90
36790;DHT22;22740;52.182;8.780;2023-02-01T21:36:13;5.40;99.90
36790;DHT22;22740;52.182;8.780;2023-02-01T21:42:19;5.40;99.90
36790;DHT22;22740;52.182;8.780;2023-02-01T21:48:22;5.40;99.90
36790;DHT22;22740;52.182;8.780;2023-02-01T21:54:24;5.40;99.90
36790;DHT22;22740;52.182;8.780;2023-02-01T22:00:27;5.60;99.90
36790;DHT22;22740;52.182;8.780;2023-02-01T22:06:37;5.60;99.90
36790;DHT22;22740;52.182;8.780;2023-02-01T22:12:40;5.60;99.90
36790;DHT22;22740;52.182;8.780;2023-02-01T22:18:43;5.50;99.90
36790;DHT22;22740;52.182;8.780;2023-02-01T22:24:45;5.50;99.90
36790;DHT22;22740;52.182;8.780;2023-02-01T22:30:47;5.30;99.90
36790;DHT22;22740;52.182;8.780;2023-02-01T22:36:49;5.40;99.90
36790;DHT22;22740;52.182;8.780;2023-02-01T22:42:51;5.30;99.90
36790;DHT22;22740;52.182;8.780;2023-02-01T22:48:53;5.30;99.90
36790;DHT22;22740;52.182;8.780;2023-02-01T22:54:55;5.20;99.90
36790;DHT22;22740;52.182;8.780;2023-02-01T23:01:07;5.20;99.90
36790;DHT22;22740;52.182;8.780;2023-02-01T23:07:10;5.00;99.90
36790;DHT22;22740;52.182;8.780;2023-02-01T23:13:12;5.00;99.90
36790;DHT22;22740;52.182;8.780;2023-02-01T23:19:14;4.90;99.90
36790;DHT22;22740;52.182;8.780;2023-02-01T23:25:17;4.80;99.90
36790;DHT22;22740;52.182;8.780;2023-02-01T23:31:20;4.90;99.90
36790;DHT22;22740;52.182;8.780;2023-02-01T23:37:23;4.80;99.90
36790;DHT22;22740;52.182;8.780;2023-02-01T23:43:25;4.80;99.90
36790;DHT22;22740;52.182;8.780;2023-02-01T23:49:46;4.70;99.90
36790;DHT22;22740;52.182;8.780;2023-02-01T23:55:52;4.60;99.90
